Time;durP1;ratioP1;P1;durP2;ratioP2;P2;SDS_P1;SDS_P2;PMS_P1;PMS_P2;Temp;Humidity;BMP_temperature;BMP_pressure;BME280_temperature;BME280_humidity;BME280_pressure;Samples;Min_cycle;Max_cycle;Signal;HPM_P1;HPM_P2
2024/01/24 00:00:12;;;;;;;20.38;14.88;;;;;;;5.06;100.00;97828.53;5070442;28;20535;-67
2024/01/24 00:02:38;;;;;;;20.10;16.77;;;;;;;5.03;100.00;97831.25;5056935;28;20032;-67
2024/01/24 00:05:03;;;;;;;22.67;16.00;;;;;;;5.01;100.00;97830.47;5066854;28;20040;-67
2024/01/24 00:07:29;;;;;;;21.83;16.15;;;;;;;4.97;100.00;97826.22;5065946;28;20080;-67
2024/01/24 00:09:55;;;;;;;28.25;18.05;;;;;;;4.87;100.00;97815.28;5062787;28;20025;-67
2024/01/24 00:12:20;;;;;;;21.70;19.50;;;;;;;4.77;100.00;97809.56;5062218;28;20032;-67
2024/01/24 00:14:46;;;;;;;30.75;20.48;;;;;;;4.68;100.00;97808.09;5061881;28;20031;-67
2024/01/24 00:17:12;;;;;;;26.60;17.85;;;;;;;4.61;100.00;97813.59;5061598;28;20847;-67
2024/01/24 00:19:37;;;;;;;28.02;20.15;;;;;;;4.55;100.00;97805.06;5065445;28;20024;-67
2024/01/24 00:22:03;;;;;;;27.98;21.08;;;;;;;4.54;100.00;97802.50;5060139;28;20529;-67
2024/01/24 00:24:28;;;;;;;27.67;20.85;;;;;;;4.52;100.00;97806.94;5067719;28;20073;-67
2024/01/24 00:26:54;;;;;;;23.58;17.63;;;;;;;4.47;100.00;97809.69;5065590;28;20025;-67
2024/01/24 00:29:19;;;;;;;22.63;17.13;;;;;;;4.48;100.00;97823.59;5067620;28;20052;-67
2024/01/24 00:31:48;;;;;;;25.08;18.10;;;;;;;4.49;100.00;97820.06;5069810;28;20494;-67
2024/01/24 00:34:13;;;;;;;22.60;17.58;;;;;;;4.52;100.00;97818.19;5071489;28;20070;-67
2024/01/24 00:36:39;;;;;;;23.02;20.48;;;;;;;4.59;100.00;97814.50;5066881;28;20020;-67
2024/01/24 00:39:05;;;;;;;24.15;19.80;;;;;;;4.62;100.00;97820.50;5072399;28;20024;-67
2024/01/24 00:41:31;;;;;;;32.67;24.15;;;;;;;4.58;100.00;97820.63;5070922;28;20591;-67
2024/01/24 00:43:56;;;;;;;30.90;23.30;;;;;;;4.57;100.00;97823.25;5067053;28;20108;-67
2024/01/24 00:46:21;;;;;;;32.40;25.80;;;;;;;4.55;100.00;97835.50;5067990;28;20112;-67
2024/01/24 00:48:47;;;;;;;35.13;26.50;;;;;;;4.52;100.00;97841.66;5062680;28;20125;-67
2024/01/24 00:51:12;;;;;;;33.30;25.92;;;;;;;4.50;100.00;97848.69;5066467;28;20399;-67
2024/01/24 00:53:40;;;;;;;25.00;17.90;;;;;;;4.49;100.00;97860.03;5069846;28;20497;-67
2024/01/24 00:56:05;;;;;;;29.50;20.10;;;;;;;4.49;100.00;97857.44;5071516;28;20028;-67
2024/01/24 00:58:31;;;;;;;23.40;18.73;;;;;;;4.52;100.00;97859.09;5068956;28;20032;-67
2024/01/24 01:00:56;;;;;;;18.95;15.85;;;;;;;4.52;100.00;97852.09;5071711;28;20035;-67
2024/01/24 01:03:21;;;;;;;16.33;14.55;;;;;;;4.62;100.00;97850.03;5067945;28;20044;-67
2024/01/24 01:05:47;;;;;;;15.35;13.95;;;;;;;4.56;100.00;97839.81;5066906;28;20024;-67
2024/01/24 01:08:12;;;;;;;15.57;14.07;;;;;;;4.54;100.00;97839.03;5067813;28;20021;-67
2024/01/24 01:10:38;;;;;;;15.07;13.57;;;;;;;4.54;100.00;97826.84;5067788;28;20025;-67
2024/01/24 01:13:03;;;;;;;15.40;13.88;;;;;;;4.51;100.00;97829.53;5070443;28;20028;-67
2024/01/24 01:15:29;;;;;;;13.25;11.98;;;;;;;4.48;100.00;97821.81;5069313;28;20024;-67
2024/01/24 01:17:54;;;;;;;10.82;9.93;;;;;;;4.44;100.00;97808.03;5057876;28;20056;-67
2024/01/24 01:20:20;;;;;;;12.77;10.98;;;;;;;4.38;100.00;97797.78;5065863;28;20109;-67
2024/01/24 01:22:46;;;;;;;11.77;10.13;;;;;;;4.29;100.00;97808.56;5061465;28;20036;-67
2024/01/24 01:25:11;;;;;;;14.50;13.00;;;;;;;4.22;100.00;97807.06;5071493;28;20529;-67
2024/01/24 01:27:37;;;;;;;16.38;12.68;;;;;;;4.19;100.00;97813.22;5067516;28;20024;-67
2024/01/24 01:30:03;;;;;;;10.25;9.15;;;;;;;4.16;100.00;97818.53;5072352;28;20036;-67
2024/01/24 01:32:29;;;;;;;11.55;9.38;;;;;;;4.12;100.00;97817.78;5072707;28;20052;-67
2024/01/24 01:34:55;;;;;;;13.20;9.77;;;;;;;4.05;100.00;97811.06;5075456;28;20397;-67
2024/01/24 01:37:23;;;;;;;13.80;9.57;;;;;;;4.03;100.00;97812.00;5067603;28;20056;-67
2024/01/24 01:39:49;;;;;;;19.00;12.98;;;;;;;4.05;100.00;97798.03;5073768;28;20025;-67
2024/01/24 01:42:14;;;;;;;15.75;12.38;;;;;;;4.03;100.00;97812.00;5072952;28;20067;-67
2024/01/24 01:44:46;;;;;;;17.83;12.90;;;;;;;3.95;100.00;97797.47;5065561;28;20090;-67
2024/01/24 01:47:13;;;;;;;20.02;12.50;;;;;;;3.94;100.00;97806.19;5070459;28;20032;-67
2024/01/24 01:49:39;;;;;;;19.13;13.55;;;;;;;3.93;100.00;97808.81;5070817;28;20532;-67
2024/01/24 01:52:05;;;;;;;23.13;14.88;;;;;;;3.84;100.00;97802.16;5071022;28;20056;-67
2024/01/24 01:54:31;;;;;;;20.85;13.15;;;;;;;3.78;100.00;97799.75;5068085;28;20032;-67
2024/01/24 01:56:56;;;;;;;17.67;11.52;;;;;;;3.74;100.00;97809.41;5072481;28;20024;-67
2024/01/24 01:59:22;;;;;;;18.02;10.23;;;;;;;3.75;100.00;97808.50;5070970;28;20115;-67
2024/01/24 02:01:50;;;;;;;13.10;8.52;;;;;;;3.79;100.00;97794.50;5074131;28;20622;-68
2024/01/24 02:04:16;;;;;;;16.95;8.80;;;;;;;3.82;100.00;97794.41;5073368;28;20234;-67
2024/01/24 02:06:42;;;;;;;15.85;10.85;;;;;;;3.76;100.00;97785.91;5074277;28;20477;-67
2024/01/24 02:09:09;;;;;;;18.15;9.57;;;;;;;3.70;100.00;97785.22;5075215;28;20066;-67
2024/01/24 02:11:35;;;;;;;14.10;8.93;;;;;;;3.61;100.00;97777.66;5069166;28;20028;-67
2024/01/24 02:14:00;;;;;;;13.18;8.90;;;;;;;3.56;100.00;97771.75;5063251;28;20017;-67
2024/01/24 02:16:26;;;;;;;12.48;10.27;;;;;;;3.58;100.00;97768.22;5058548;28;20116;-67
2024/01/24 02:18:52;;;;;;;11.93;8.95;;;;;;;3.58;100.00;97765.59;5067195;28;20033;-67
2024/01/24 02:21:17;;;;;;;12.45;8.73;;;;;;;3.60;100.00;97755.13;5074696;28;20024;-67
2024/01/24 02:23:43;;;;;;;12.98;9.80;;;;;;;3.56;100.00;97761.34;5076837;28;20516;-67
2024/01/24 02:26:10;;;;;;;11.90;8.55;;;;;;;3.52;100.00;97764.94;5068745;28;20041;-67
2024/01/24 02:28:35;;;;;;;10.63;9.05;;;;;;;3.53;100.00;97757.06;5067288;28;20485;-67
2024/01/24 02:31:00;;;;;;;12.65;8.80;;;;;;;3.48;100.00;97766.78;5064143;28;20044;-67
2024/01/24 02:33:26;;;;;;;15.23;10.45;;;;;;;3.44;100.00;97773.84;5068506;28;20058;-67
2024/01/24 02:35:51;;;;;;;13.60;9.05;;;;;;;3.44;100.00;97778.19;5067414;28;20048;-67
2024/01/24 02:38:17;;;;;;;15.35;7.97;;;;;;;3.52;100.00;97784.00;5063174;28;20052;-67
2024/01/24 02:40:42;;;;;;;15.90;9.73;;;;;;;3.42;100.00;97785.19;5066694;28;20032;-67
2024/01/24 02:43:07;;;;;;;15.43;10.70;;;;;;;3.43;100.00;97777.34;5069282;28;20032;-67
2024/01/24 02:45:33;;;;;;;14.98;10.05;;;;;;;3.44;100.00;97786.00;5058644;28;20644;-67
2024/01/24 02:47:59;;;;;;;15.15;10.80;;;;;;;3.45;100.00;97785.09;5070286;28;20078;-67
2024/01/24 02:50:24;;;;;;;16.15;12.63;;;;;;;3.44;100.00;97784.25;5065974;28;20545;-67
2024/01/24 02:52:49;;;;;;;17.92;11.10;;;;;;;3.43;100.00;97781.69;5069848;28;20354;-67
2024/01/24 02:55:17;;;;;;;17.38;10.65;;;;;;;3.47;100.00;97787.66;5062263;28;20031;-67
2024/01/24 02:57:44;;;;;;;16.77;10.75;;;;;;;3.53;100.00;97777.91;5063407;28;20013;-67
2024/01/24 03:00:12;;;;;;;15.23;13.07;;;;;;;3.61;100.00;97789.84;5063004;28;20032;-67
2024/01/24 03:02:38;;;;;;;15.38;10.85;;;;;;;3.64;100.00;97789.75;5067335;28;20074;-67
2024/01/24 03:05:05;;;;;;;18.50;11.20;;;;;;;3.66;100.00;97793.16;5065432;28;20032;-67
2024/01/24 03:07:31;;;;;;;14.13;10.02;;;;;;;3.68;100.00;97792.22;5067449;28;20029;-67
2024/01/24 03:09:56;;;;;;;16.67;12.82;;;;;;;3.72;100.00;97787.75;5066888;28;20163;-67
2024/01/24 03:12:22;;;;;;;13.80;11.52;;;;;;;3.73;100.00;97785.13;5068384;28;20065;-67
2024/01/24 03:14:47;;;;;;;14.30;11.10;;;;;;;3.72;100.00;97779.94;5065796;28;20024;-67
2024/01/24 03:17:13;;;;;;;13.13;10.18;;;;;;;3.72;100.00;97767.78;5061557;28;20095;-67
2024/01/24 03:19:38;;;;;;;14.80;9.18;;;;;;;3.70;100.00;97773.94;5064812;28;20082;-67
2024/01/24 03:22:04;;;;;;;16.33;12.23;;;;;;;3.67;100.00;97769.69;5075235;28;20036;-67
2024/01/24 03:24:29;;;;;;;14.48;9.30;;;;;;;3.64;100.00;97763.72;5062583;28;20410;-67
2024/01/24 03:26:55;;;;;;;13.70;8.30;;;;;;;3.63;100.00;97764.59;5071006;28;20036;-67
2024/01/24 03:29:20;;;;;;;11.52;8.07;;;;;;;3.60;100.00;97759.50;5068846;28;20024;-67
2024/01/24 03:31:46;;;;;;;13.40;8.40;;;;;;;3.54;100.00;97760.53;5064516;28;20025;-67
2024/01/24 03:34:12;;;;;;;19.70;12.88;;;;;;;3.44;100.00;97753.00;5065257;28;20151;-67
2024/01/24 03:36:37;;;;;;;17.08;10.57;;;;;;;3.39;100.00;97754.03;5065966;28;20028;-67
2024/01/24 03:39:03;;;;;;;14.07;8.95;;;;;;;3.34;100.00;97745.53;5068555;28;20474;-67
2024/01/24 03:41:29;;;;;;;10.32;8.43;;;;;;;3.42;100.00;97754.78;5060522;28;20532;-67
2024/01/24 03:43:55;;;;;;;16.55;10.55;;;;;;;3.64;100.00;97756.72;5068255;28;20028;-67
2024/01/24 03:46:20;;;;;;;11.15;8.63;;;;;;;3.55;100.00;97760.50;5062164;28;20555;-67
2024/01/24 03:48:46;;;;;;;13.60;8.40;;;;;;;3.49;100.00;97768.47;5071297;28;20028;-67
2024/01/24 03:51:11;;;;;;;13.77;7.65;;;;;;;3.44;100.00;97759.97;5064337;28;20044;-67
2024/01/24 03:53:37;;;;;;;9.93;7.70;;;;;;;3.49;100.00;97763.25;5062824;28;20031;-67
2024/01/24 03:56:03;;;;;;;8.88;7.55;;;;;;;3.46;100.00;97765.13;5067308;28;20085;-67
2024/01/24 03:58:28;;;;;;;11.00;7.88;;;;;;;3.43;100.00;97760.84;5059806;28;20408;-67
2024/01/24 04:00:55;;;;;;;8.23;7.43;;;;;;;3.39;100.00;97769.66;5065706;28;20020;-67
2024/01/24 04:03:21;;;;;;;7.63;5.75;;;;;;;3.34;100.00;97767.19;5058800;28;20094;-68
2024/01/24 04:05:46;;;;;;;14.07;9.38;;;;;;;3.34;100.00;97776.78;5057474;28;20021;-67
2024/01/24 04:08:12;;;;;;;11.63;8.63;;;;;;;3.37;100.00;97771.47;5064649;28;20021;-67
2024/01/24 04:10:37;;;;;;;18.58;13.00;;;;;;;3.34;100.00;97769.78;5060221;28;20036;-67
2024/01/24 04:13:03;;;;;;;17.98;14.75;;;;;;;3.33;100.00;97775.91;5070002;28;20028;-67
2024/01/24 04:15:28;;;;;;;11.88;9.95;;;;;;;3.34;100.00;97775.00;5065340;28;20028;-67
2024/01/24 04:17:55;;;;;;;13.02;10.77;;;;;;;3.42;100.00;97775.63;5056386;28;20108;-67
2024/01/24 04:20:20;;;;;;;10.48;8.95;;;;;;;3.44;100.00;97779.06;5066510;28;20032;-67
2024/01/24 04:22:46;;;;;;;12.57;9.82;;;;;;;3.44;100.00;97772.97;5067306;28;20476;-67
2024/01/24 04:25:11;;;;;;;12.93;9.30;;;;;;;3.48;100.00;97771.16;5067505;28;20080;-67
2024/01/24 04:27:37;;;;;;;8.57;7.38;;;;;;;3.45;100.00;97756.44;5068196;28;20061;-67
2024/01/24 04:30:04;;;;;;;7.95;7.05;;;;;;;3.42;100.00;97746.97;5067603;28;20051;-67
2024/01/24 04:32:30;;;;;;;8.55;7.25;;;;;;;3.42;100.00;97746.97;5070817;28;20070;-67
2024/01/24 04:34:56;;;;;;;6.47;5.85;;;;;;;3.40;100.00;97745.34;5068177;28;20027;-67
2024/01/24 04:37:21;;;;;;;10.32;7.65;;;;;;;3.38;100.00;97745.38;5071115;28;20481;-67
2024/01/24 04:39:46;;;;;;;7.80;6.70;;;;;;;3.38;100.00;97747.97;5067476;28;20104;-67
2024/01/24 04:42:12;;;;;;;6.18;5.53;;;;;;;3.33;100.00;97744.66;5065368;28;20051;-67
2024/01/24 04:44:37;;;;;;;6.80;4.00;;;;;;;3.26;100.00;97744.00;5061187;28;20025;-67
2024/01/24 04:47:03;;;;;;;5.57;4.13;;;;;;;3.34;100.00;97743.75;5065458;28;20025;-67
2024/01/24 04:49:28;;;;;;;12.50;9.70;;;;;;;3.35;100.00;97744.63;5061616;28;20057;-67
2024/01/24 04:51:54;;;;;;;8.82;7.93;;;;;;;3.37;100.00;97746.25;5057738;28;20033;-68
2024/01/24 04:54:19;;;;;;;9.13;7.15;;;;;;;3.42;100.00;97739.16;5062564;28;20021;-67
2024/01/24 04:56:46;;;;;;;11.85;8.43;;;;;;;3.47;100.00;97739.03;5065097;28;20039;-68
2024/01/24 04:59:15;;;;;;;9.45;7.03;;;;;;;3.46;100.00;97737.31;5066437;28;20108;-68
2024/01/24 05:01:40;;;;;;;7.60;6.65;;;;;;;3.41;100.00;97728.81;5063103;28;20043;-67
2024/01/24 05:04:06;;;;;;;8.43;7.70;;;;;;;3.40;100.00;97721.91;5063763;28;20041;-68
2024/01/24 05:06:32;;;;;;;17.42;10.57;;;;;;;3.35;100.00;97724.63;5061795;28;20086;-68
2024/01/24 05:08:57;;;;;;;13.90;12.57;;;;;;;3.33;100.00;97721.22;5064259;28;20024;-68
2024/01/24 05:11:23;;;;;;;12.20;11.20;;;;;;;3.32;100.00;97710.88;5068136;28;20024;-68
2024/01/24 05:13:48;;;;;;;10.95;10.00;;;;;;;3.25;100.00;97711.03;5064331;28;20097;-68
2024/01/24 05:16:15;;;;;;;9.93;9.13;;;;;;;3.19;100.00;97712.97;5063916;28;20044;-67
2024/01/24 05:18:40;;;;;;;9.00;8.10;;;;;;;3.16;100.00;97721.75;5054150;28;20036;-68
2024/01/24 05:21:06;;;;;;;6.53;6.00;;;;;;;3.14;100.00;97721.78;5064231;28;20024;-68
2024/01/24 05:23:32;;;;;;;10.60;7.75;;;;;;;3.14;100.00;97720.94;5063035;28;20025;-68
2024/01/24 05:25:57;;;;;;;8.38;7.55;;;;;;;3.14;100.00;97724.38;5063807;28;20544;-67
2024/01/24 05:28:23;;;;;;;8.32;7.55;;;;;;;3.07;100.00;97707.25;5076040;28;20028;-67
2024/01/24 05:30:48;;;;;;;7.95;7.00;;;;;;;3.04;100.00;97712.56;5057343;28;20040;-67
2024/01/24 05:33:14;;;;;;;9.93;6.90;;;;;;;3.00;100.00;97723.97;5076007;28;20025;-67
2024/01/24 05:35:39;;;;;;;7.90;7.20;;;;;;;3.00;100.00;97714.38;5067153;28;20021;-67
2024/01/24 05:38:04;;;;;;;6.85;6.18;;;;;;;3.13;100.00;97716.63;5066603;28;20423;-67
2024/01/24 05:40:30;;;;;;;6.15;5.63;;;;;;;2.99;100.00;97719.66;5066494;28;20029;-66
2024/01/24 05:42:55;;;;;;;6.07;5.47;;;;;;;2.94;100.00;97721.50;5069514;28;20067;-67
2024/01/24 05:45:22;;;;;;;6.30;5.13;;;;;;;2.91;100.00;97708.59;5069862;28;20035;-67
2024/01/24 05:47:47;;;;;;;6.63;5.50;;;;;;;2.93;100.00;97725.00;5057420;28;20021;-67
2024/01/24 05:50:13;;;;;;;6.43;5.13;;;;;;;2.89;100.00;97715.59;5057729;28;20032;-67
2024/01/24 05:52:43;;;;;;;10.50;6.18;;;;;;;2.90;100.00;97730.31;5066093;28;20024;-67
2024/01/24 05:55:12;;;;;;;6.10;5.50;;;;;;;2.90;100.00;97730.31;5073624;28;20036;-67
2024/01/24 05:57:39;;;;;;;13.05;11.38;;;;;;;2.90;100.00;97744.19;5076244;28;20077;-67
2024/01/24 06:00:08;;;;;;;8.60;7.15;;;;;;;2.89;100.00;97744.22;5074510;28;20024;-67
2024/01/24 06:02:35;;;;;;;5.75;5.22;;;;;;;2.84;100.00;97745.22;5056361;28;20158;-67
2024/01/24 06:05:00;;;;;;;8.93;7.85;;;;;;;2.84;100.00;97747.81;5065133;28;20033;-67
2024/01/24 06:07:25;;;;;;;36.53;30.70;;;;;;;2.88;100.00;97755.53;5064335;28;20107;-67
2024/01/24 06:09:51;;;;;;;18.45;16.42;;;;;;;2.97;100.00;97755.25;5064733;28;20103;-67
2024/01/24 06:12:16;;;;;;;17.58;15.77;;;;;;;2.97;100.00;97763.06;5061253;28;20066;-67
2024/01/24 06:14:41;;;;;;;15.05;12.27;;;;;;;2.97;100.00;97763.06;5067343;28;20389;-67
2024/01/24 06:17:07;;;;;;;14.32;12.93;;;;;;;2.95;100.00;97763.13;5058451;28;20465;-67
2024/01/24 06:19:32;;;;;;;12.85;11.65;;;;;;;3.00;100.00;97770.81;5056684;28;20020;-67
2024/01/24 06:21:57;;;;;;;15.55;14.05;;;;;;;3.02;100.00;97758.59;5076206;28;20020;-67
2024/01/24 06:24:23;;;;;;;16.58;14.82;;;;;;;3.04;100.00;97756.81;5056729;28;20112;-68
2024/01/24 06:26:48;;;;;;;38.03;32.72;;;;;;;3.05;100.00;97768.91;5056868;28;20039;-68
2024/01/24 06:29:14;;;;;;;35.83;30.00;;;;;;;3.02;100.00;97769.00;5055951;28;20025;-67
2024/01/24 06:31:39;;;;;;;15.35;13.82;;;;;;;3.03;100.00;97769.84;5065351;28;20037;-67
2024/01/24 06:34:04;;;;;;;20.48;16.77;;;;;;;3.10;100.00;97763.59;5077604;28;20376;-67
2024/01/24 06:36:30;;;;;;;17.95;16.05;;;;;;;3.08;100.00;97768.81;5072123;28;20020;-69
2024/01/24 06:38:55;;;;;;;16.15;14.45;;;;;;;3.05;100.00;97755.91;5063351;28;20104;-69
2024/01/24 06:41:20;;;;;;;15.98;13.07;;;;;;;3.09;100.00;97751.44;5055515;28;20045;-69
2024/01/24 06:43:46;;;;;;;16.77;14.38;;;;;;;3.12;100.00;97762.63;5062720;28;20037;-69
2024/01/24 06:46:11;;;;;;;17.58;13.73;;;;;;;3.19;100.00;97762.44;5064823;28;20033;-67
2024/01/24 06:48:37;;;;;;;16.38;13.48;;;;;;;3.24;100.00;97766.63;5070694;28;20024;-69
2024/01/24 06:51:02;;;;;;;20.83;18.75;;;;;;;3.29;100.00;97764.72;5066080;28;20182;-68
2024/01/24 06:53:28;;;;;;;23.48;21.05;;;;;;;3.34;100.00;97769.78;5068991;28;20029;-68
2024/01/24 06:55:56;;;;;;;24.27;21.85;;;;;;;3.37;100.00;97771.47;5066346;28;20128;-68
2024/01/24 06:58:21;;;;;;;19.63;17.75;;;;;;;3.37;100.00;97771.47;5072372;28;20059;-68
2024/01/24 07:00:46;;;;;;;18.77;16.80;;;;;;;3.37;100.00;97774.91;5065219;28;20062;-67
2024/01/24 07:03:12;;;;;;;22.75;19.80;;;;;;;3.42;100.00;97770.41;5072945;28;20055;-68
2024/01/24 07:05:37;;;;;;;19.80;17.80;;;;;;;3.50;100.00;97779.75;5057433;28;20036;-65
2024/01/24 07:08:03;;;;;;;29.67;26.70;;;;;;;3.57;100.00;97770.84;5068316;28;20040;-67
2024/01/24 07:10:28;;;;;;;23.58;20.85;;;;;;;3.59;100.00;97771.66;5068596;28;20075;-67
2024/01/24 07:12:55;;;;;;;23.55;21.02;;;;;;;3.59;100.00;97771.66;5066381;28;20036;-67
2024/01/24 07:15:20;;;;;;;30.23;27.00;;;;;;;3.63;100.00;97762.84;5063898;28;20023;-67
2024/01/24 07:17:46;;;;;;;28.50;25.23;;;;;;;3.67;100.00;97754.06;5069966;28;20516;-67
2024/01/24 07:20:13;;;;;;;36.67;32.88;;;;;;;3.72;100.00;97761.69;5061322;28;20116;-68
2024/01/24 07:22:41;;;;;;;39.70;35.65;;;;;;;3.75;100.00;97755.56;5066518;28;20025;-68
2024/01/24 07:25:07;;;;;;;36.97;33.33;;;;;;;3.84;100.00;97755.25;5053464;28;20096;-67
2024/01/24 07:27:33;;;;;;;29.83;25.73;;;;;;;3.82;100.00;97751.84;5061076;28;20548;-67
2024/01/24 07:29:58;;;;;;;27.15;24.60;;;;;;;3.85;100.00;97750.00;5056251;28;20020;-68
2024/01/24 07:32:24;;;;;;;22.73;20.45;;;;;;;3.90;100.00;97752.47;5068974;28;20036;-68
2024/01/24 07:34:49;;;;;;;26.55;23.88;;;;;;;3.96;100.00;97756.59;5066484;28;20016;-68
2024/01/24 07:37:15;;;;;;;49.92;44.83;;;;;;;4.00;100.00;97761.66;5061576;28;20021;-67
2024/01/24 07:39:40;;;;;;;59.60;54.45;;;;;;;4.06;100.00;97759.75;5063711;28;20496;-66
2024/01/24 07:42:06;;;;;;;76.50;68.72;;;;;;;4.12;100.00;97772.63;5060711;28;20052;-68
2024/01/24 07:44:31;;;;;;;27.23;24.92;;;;;;;4.22;100.00;97770.56;5066338;28;20028;-68
2024/01/24 07:46:58;;;;;;;14.90;13.32;;;;;;;4.30;100.00;97768.53;5063726;28;20090;-69
2024/01/24 07:49:23;;;;;;;13.13;11.95;;;;;;;4.26;100.00;97777.38;5054491;28;20021;-68
2024/01/24 07:51:48;;;;;;;12.65;11.07;;;;;;;4.28;100.00;97786.81;5062152;28;20115;-68
2024/01/24 07:54:17;;;;;;;13.25;11.27;;;;;;;4.36;100.00;97788.34;5054727;28;20371;-68
2024/01/24 07:56:43;;;;;;;12.05;11.05;;;;;;;4.46;100.00;97800.16;5069810;28;20032;-68
2024/01/24 07:59:08;;;;;;;10.52;9.43;;;;;;;4.51;100.00;97811.28;5054078;28;20021;-69
2024/01/24 08:01:34;;;;;;;10.05;8.82;;;;;;;4.57;100.00;97818.91;5056100;28;20032;-68
2024/01/24 08:03:59;;;;;;;10.07;8.80;;;;;;;4.68;100.00;97809.84;5074003;28;20074;-69
2024/01/24 08:06:25;;;;;;;16.25;14.02;;;;;;;4.74;100.00;97822.69;5061847;28;20110;-69
2024/01/24 08:08:50;;;;;;;12.77;10.07;;;;;;;4.77;100.00;97817.38;5066530;28;20396;-68
2024/01/24 08:11:16;;;;;;;10.88;9.88;;;;;;;4.78;100.00;97820.81;5066106;28;20387;-68
2024/01/24 08:13:42;;;;;;;11.00;10.00;;;;;;;4.81;100.00;97826.81;5057368;28;20028;-68
2024/01/24 08:16:07;;;;;;;13.30;11.90;;;;;;;4.83;100.00;97831.94;5071622;28;20036;-68
2024/01/24 08:18:33;;;;;;;23.65;21.23;;;;;;;4.85;100.00;97833.59;5054933;28;20520;-68
2024/01/24 08:20:59;;;;;;;12.43;11.23;;;;;;;4.97;100.00;97831.47;5057909;28;20544;-68
2024/01/24 08:23:25;;;;;;;9.30;8.48;;;;;;;5.06;100.00;97830.28;5066951;28;20021;-68
2024/01/24 08:25:50;;;;;;;8.95;8.20;;;;;;;5.13;100.00;97834.41;5063380;28;20021;-68
2024/01/24 08:28:16;;;;;;;10.80;8.45;;;;;;;5.22;100.00;97839.28;5054822;28;20032;-68
2024/01/24 08:30:42;;;;;;;9.27;8.23;;;;;;;5.32;100.00;97833.72;5063417;28;20449;-68
2024/01/24 08:33:07;;;;;;;8.82;7.68;;;;;;;5.41;100.00;97836.81;5062675;28;20028;-68
2024/01/24 08:35:35;;;;;;;11.27;7.22;;;;;;;5.51;100.00;97828.66;5062838;28;20044;-68
2024/01/24 08:38:01;;;;;;;8.90;8.10;;;;;;;5.59;100.00;97832.69;5060361;28;20108;-68
2024/01/24 08:40:26;;;;;;;9.25;8.23;;;;;;;5.73;100.00;97815.59;5054207;28;20509;-68
2024/01/24 08:42:52;;;;;;;11.30;8.80;;;;;;;5.86;100.00;97810.78;5061495;28;20081;-68
2024/01/24 08:45:17;;;;;;;11.15;9.05;;;;;;;5.98;100.00;97812.88;5066467;28;20032;-68
2024/01/24 08:47:43;;;;;;;16.48;14.88;;;;;;;6.16;100.00;97803.47;5054558;28;20096;-68
2024/01/24 08:50:09;;;;;;;10.77;9.43;;;;;;;6.31;100.00;97806.38;5054546;28;20039;-69
2024/01/24 08:52:35;;;;;;;10.80;9.70;;;;;;;6.34;100.00;97813.28;5063325;28;20042;-68
2024/01/24 08:55:01;;;;;;;9.25;8.40;;;;;;;6.44;100.00;97811.97;5063651;28;20485;-68
2024/01/24 08:57:27;;;;;;;10.63;6.93;;;;;;;6.52;100.00;97817.75;5077219;28;20028;-69
2024/01/24 08:59:53;;;;;;;11.40;10.05;;;;;;;6.56;100.00;97821.94;5062601;28;20059;-68
2024/01/24 09:02:18;;;;;;;17.75;13.48;;;;;;;6.58;100.00;97840.16;5075193;28;20052;-69
2024/01/24 09:04:46;;;;;;;19.73;17.63;;;;;;;6.66;100.00;97858.16;5063700;28;20032;-68
2024/01/24 09:07:14;;;;;;;19.67;17.77;;;;;;;6.94;100.00;97860.47;5077688;28;20028;-68
2024/01/24 09:09:39;;;;;;;20.77;18.02;;;;;;;7.07;100.00;97870.41;5064783;28;20456;-68
2024/01/24 09:12:04;;;;;;;19.70;17.60;;;;;;;7.07;100.00;97881.75;5064554;28;20104;-68
2024/01/24 09:14:30;;;;;;;17.98;12.90;;;;;;;7.01;100.00;97889.88;5062213;28;20386;-68
2024/01/24 09:16:55;;;;;;;16.00;13.38;;;;;;;7.03;100.00;97894.13;5071116;28;20020;-68
2024/01/24 09:19:21;;;;;;;21.13;19.08;;;;;;;7.14;100.00;97909.38;5077929;28;20051;-68
2024/01/24 09:21:46;;;;;;;18.38;15.65;;;;;;;7.38;100.00;97919.69;5081306;28;20082;-68
2024/01/24 09:24:12;;;;;;;13.23;11.90;;;;;;;7.65;100.00;97916.81;5057384;28;20029;-68
2024/01/24 09:26:37;;;;;;;12.75;11.48;;;;;;;7.88;100.00;97907.03;5057997;28;20040;-69
2024/01/24 09:29:03;;;;;;;12.07;10.52;;;;;;;8.19;100.00;97899.50;5060040;28;20025;-68
2024/01/24 09:31:29;;;;;;;9.07;7.25;;;;;;;8.60;100.00;97915.91;5064217;28;20466;-68
2024/01/24 09:33:55;;;;;;;9.13;7.20;;;;;;;9.02;100.00;97915.63;5066655;28;20020;-69
2024/01/24 09:36:23;;;;;;;8.02;6.45;;;;;;;9.16;100.00;97910.50;5061771;28;20024;-69
2024/01/24 09:38:48;;;;;;;11.15;6.32;;;;;;;9.16;100.00;97910.50;5066782;28;20589;-68
2024/01/24 09:41:19;;;;;;;9.27;6.20;;;;;;;9.08;100.00;97917.94;5060960;28;20069;-69
2024/01/24 09:43:46;;;;;;;9.40;6.47;;;;;;;8.99;100.00;97910.53;5058395;28;20492;-69
2024/01/24 09:46:15;;;;;;;15.45;11.77;;;;;;;8.92;100.00;97898.63;5077576;28;20035;-69
2024/01/24 09:48:43;;;;;;;20.10;18.20;;;;;;;8.72;100.00;97903.09;5063219;28;20116;-69
2024/01/24 09:51:09;;;;;;;15.98;12.93;;;;;;;8.65;100.00;97912.19;5068058;28;20029;-68
2024/01/24 09:53:38;;;;;;;14.63;13.32;;;;;;;8.70;100.00;97912.81;5070324;28;20016;-69
2024/01/24 09:56:03;;;;;;;18.02;15.93;;;;;;;9.23;100.00;97912.84;5059245;28;20035;-68
2024/01/24 09:58:29;;;;;;;9.13;8.23;;;;;;;9.54;100.00;97904.22;5052815;28;20485;-69
2024/01/24 10:00:56;;;;;;;9.40;8.13;;;;;;;9.68;100.00;97887.69;5065674;28;20036;-68
2024/01/24 10:03:22;;;;;;;7.82;7.13;;;;;;;9.81;100.00;97881.75;5061682;28;20453;-69
2024/01/24 10:05:50;;;;;;;9.35;6.75;;;;;;;9.97;100.00;97885.25;5066507;28;20099;-69
2024/01/24 10:08:15;;;;;;;6.68;5.97;;;;;;;10.09;100.00;97872.34;5068351;28;20031;-68
2024/01/24 10:10:42;;;;;;;13.02;9.40;;;;;;;10.26;100.00;97866.97;5057039;28;20025;-69
2024/01/24 10:13:07;;;;;;;9.40;8.40;;;;;;;10.40;100.00;97862.72;5058276;28;20028;-69
2024/01/24 10:15:35;;;;;;;11.40;7.93;;;;;;;10.60;100.00;97849.28;5068361;28;20036;-69
2024/01/24 10:18:01;;;;;;;9.65;8.07;;;;;;;10.69;100.00;97839.13;5057024;28;20042;-69
2024/01/24 10:20:26;;;;;;;5.90;5.40;;;;;;;10.82;100.00;97853.31;5056827;28;20109;-69
2024/01/24 10:22:53;;;;;;;8.68;6.68;;;;;;;11.00;100.00;97850.53;5083410;28;20027;-69
2024/01/24 10:25:18;;;;;;;8.35;5.78;;;;;;;11.12;100.00;97839.22;5061103;28;20120;-69
2024/01/24 10:27:44;;;;;;;8.68;5.45;;;;;;;11.20;100.00;97836.13;5056324;28;20068;-69
2024/01/24 10:30:11;;;;;;;11.20;6.85;;;;;;;11.30;100.00;97831.13;5071385;28;20037;-69
2024/01/24 10:32:37;;;;;;;6.88;4.93;;;;;;;11.34;100.00;97830.00;5076565;28;20020;-69
2024/01/24 10:35:08;;;;;;;13.45;8.27;;;;;;;11.37;100.00;97828.97;5056701;28;20032;-69
2024/01/24 10:37:34;;;;;;;6.28;5.10;;;;;;;11.51;100.00;97826.34;5056621;28;20036;-69
2024/01/24 10:40:11;;;;;;;6.28;4.80;;;;;;;11.58;100.00;97821.50;5069609;28;20033;-68
2024/01/24 10:42:40;;;;;;;4.75;4.30;;;;;;;11.77;100.00;97817.72;5056313;28;20561;-69
2024/01/24 10:45:07;;;;;;;8.10;4.30;;;;;;;11.86;100.00;97820.63;5069388;28;20040;-68
2024/01/24 10:47:34;;;;;;;6.60;4.55;;;;;;;11.94;100.00;97804.31;5056314;28;20032;-69
2024/01/24 10:50:04;;;;;;;7.63;6.80;;;;;;;12.03;100.00;97798.44;5056366;28;20488;-69
2024/01/24 10:52:32;;;;;;;5.13;4.55;;;;;;;12.17;100.00;97792.28;5068346;28;20495;-69
2024/01/24 10:55:03;;;;;;;8.57;7.25;;;;;;;12.24;100.00;97792.72;5055917;28;20032;-69
2024/01/24 10:57:30;;;;;;;8.25;4.38;;;;;;;12.29;100.00;97787.13;5055704;28;20118;-69
2024/01/24 10:59:56;;;;;;;9.30;6.53;;;;;;;12.18;100.00;97777.28;5055488;28;20162;-68
2024/01/24 11:02:21;;;;;;;6.57;5.07;;;;;;;12.20;100.00;97788.59;5064681;28;20469;-69
2024/01/24 11:04:49;;;;;;;5.22;4.00;;;;;;;12.24;100.00;97779.50;5070930;28;20071;-69
2024/01/24 11:07:24;;;;;;;4.15;3.63;;;;;;;12.38;100.00;97780.41;5064162;28;20025;-69
2024/01/24 11:10:19;;;;;;;6.32;4.00;;;;;;;12.71;100.00;97760.56;5066820;28;20013;-69
2024/01/24 11:12:44;;;;;;;5.57;3.60;;;;;;;12.75;100.00;97752.34;5069010;28;20016;-69
2024/01/24 11:15:13;;;;;;;7.65;4.22;;;;;;;12.92;100.00;97754.75;5059653;28;20031;-69